sensor_id;sensor_type;location;lat;lon;timestamp;P1;durP1;ratioP1;P2;durP2;ratioP2
15486;SDS011;7845;53.698;10.078;2022-12-07T00:01:23;12.70;;;7.37;;
15486;SDS011;7845;53.698;10.078;2022-12-07T00:03:51;16.30;;;9.10;;
15486;SDS011;7845;53.698;10.078;2022-12-07T00:06:19;12.20;;;8.27;;
15486;SDS011;7845;53.698;10.078;2022-12-07T00:08:46;15.13;;;9.30;;
15486;SDS011;7845;53.698;10.078;2022-12-07T00:11:16;13.03;;;7.40;;
15486;SDS011;7845;53.698;10.078;2022-12-07T00:13:43;12.80;;;8.07;;
15486;SDS011;7845;53.698;10.078;2022-12-07T00:16:10;11.50;;;7.80;;
15486;SDS011;7845;53.698;10.078;2022-12-07T00:18:41;14.33;;;9.33;;
15486;SDS011;7845;53.698;10.078;2022-12-07T00:21:09;12.30;;;7.80;;
15486;SDS011;7845;53.698;10.078;2022-12-07T00:23:36;14.03;;;9.10;;
15486;SDS011;7845;53.698;10.078;2022-12-07T00:26:15;15.30;;;8.47;;
15486;SDS011;7845;53.698;10.078;2022-12-07T00:28:48;13.20;;;8.97;;
15486;SDS011;7845;53.698;10.078;2022-12-07T00:31:15;12.57;;;7.60;;
15486;SDS011;7845;53.698;10.078;2022-12-07T00:33:43;15.13;;;7.77;;
15486;SDS011;7845;53.698;10.078;2022-12-07T00:36:09;15.27;;;9.87;;
15486;SDS011;7845;53.698;10.078;2022-12-07T00:38:37;14.47;;;9.30;;
15486;SDS011;7845;53.698;10.078;2022-12-07T00:41:07;14.40;;;8.57;;
15486;SDS011;7845;53.698;10.078;2022-12-07T00:43:36;12.80;;;7.83;;
15486;SDS011;7845;53.698;10.078;2022-12-07T00:46:01;12.50;;;8.13;;
15486;SDS011;7845;53.698;10.078;2022-12-07T00:48:26;15.73;;;8.50;;
15486;SDS011;7845;53.698;10.078;2022-12-07T00:50:52;12.60;;;7.80;;
15486;SDS011;7845;53.698;10.078;2022-12-07T00:53:17;12.83;;;8.17;;
15486;SDS011;7845;53.698;10.078;2022-12-07T00:55:43;11.60;;;8.50;;
15486;SDS011;7845;53.698;10.078;2022-12-07T00:58:09;12.80;;;8.13;;
15486;SDS011;7845;53.698;10.078;2022-12-07T01:00:35;13.77;;;8.33;;
15486;SDS011;7845;53.698;10.078;2022-12-07T01:03:01;12.60;;;8.40;;
15486;SDS011;7845;53.698;10.078;2022-12-07T01:05:26;11.97;;;8.60;;
15486;SDS011;7845;53.698;10.078;2022-12-07T01:07:51;13.00;;;9.20;;
15486;SDS011;7845;53.698;10.078;2022-12-07T01:10:17;13.40;;;8.87;;
15486;SDS011;7845;53.698;10.078;2022-12-07T01:12:42;13.90;;;8.80;;
15486;SDS011;7845;53.698;10.078;2022-12-07T01:15:08;11.37;;;8.17;;
15486;SDS011;7845;53.698;10.078;2022-12-07T01:17:34;10.57;;;7.63;;
15486;SDS011;7845;53.698;10.078;2022-12-07T01:19:59;13.70;;;7.63;;
15486;SDS011;7845;53.698;10.078;2022-12-07T01:22:25;11.87;;;7.97;;
15486;SDS011;7845;53.698;10.078;2022-12-07T01:24:51;11.80;;;7.50;;
15486;SDS011;7845;53.698;10.078;2022-12-07T01:27:17;13.20;;;7.90;;
15486;SDS011;7845;53.698;10.078;2022-12-07T01:29:42;11.20;;;7.40;;
15486;SDS011;7845;53.698;10.078;2022-12-07T01:32:08;12.80;;;7.40;;
15486;SDS011;7845;53.698;10.078;2022-12-07T01:34:33;12.90;;;7.50;;
15486;SDS011;7845;53.698;10.078;2022-12-07T01:36:58;10.47;;;7.07;;
15486;SDS011;7845;53.698;10.078;2022-12-07T01:39:24;10.90;;;6.07;;
15486;SDS011;7845;53.698;10.078;2022-12-07T01:41:50;13.40;;;6.83;;
15486;SDS011;7845;53.698;10.078;2022-12-07T01:46:47;11.67;;;6.57;;
15486;SDS011;7845;53.698;10.078;2022-12-07T01:49:17;12.60;;;6.33;;
15486;SDS011;7845;53.698;10.078;2022-12-07T01:52:22;10.70;;;6.00;;
15486;SDS011;7845;53.698;10.078;2022-12-07T01:54:52;11.40;;;6.50;;
15486;SDS011;7845;53.698;10.078;2022-12-07T01:57:21;10.20;;;6.10;;
15486;SDS011;7845;53.698;10.078;2022-12-07T01:59:48;10.00;;;5.77;;
15486;SDS011;7845;53.698;10.078;2022-12-07T02:02:18;10.63;;;6.20;;
15486;SDS011;7845;53.698;10.078;2022-12-07T03:05:38;7.23;;;2.77;;
15486;SDS011;7845;53.698;10.078;2022-12-07T03:13:45;8.27;;;2.23;;
15486;SDS011;7845;53.698;10.078;2022-12-07T03:16:37;6.73;;;2.30;;
15486;SDS011;7845;53.698;10.078;2022-12-07T03:19:07;9.33;;;2.10;;
15486;SDS011;7845;53.698;10.078;2022-12-07T03:21:38;6.60;;;2.10;;
15486;SDS011;7845;53.698;10.078;2022-12-07T03:24:08;5.93;;;2.30;;
15486;SDS011;7845;53.698;10.078;2022-12-07T03:26:38;6.40;;;1.47;;
15486;SDS011;7845;53.698;10.078;2022-12-07T03:29:20;6.53;;;2.20;;
15486;SDS011;7845;53.698;10.078;2022-12-07T03:37:17;3.60;;;1.43;;
15486;SDS011;7845;53.698;10.078;2022-12-07T03:42:43;4.57;;;1.40;;
15486;SDS011;7845;53.698;10.078;2022-12-07T03:45:09;4.33;;;1.40;;
15486;SDS011;7845;53.698;10.078;2022-12-07T03:50:26;3.87;;;1.40;;
15486;SDS011;7845;53.698;10.078;2022-12-07T03:53:02;6.57;;;1.80;;
15486;SDS011;7845;53.698;10.078;2022-12-07T03:55:34;3.77;;;1.30;;
15486;SDS011;7845;53.698;10.078;2022-12-07T03:58:05;3.97;;;1.37;;
15486;SDS011;7845;53.698;10.078;2022-12-07T04:00:37;3.53;;;1.30;;
15486;SDS011;7845;53.698;10.078;2022-12-07T04:03:03;3.60;;;1.20;;
15486;SDS011;7845;53.698;10.078;2022-12-07T04:05:28;7.07;;;1.50;;
15486;SDS011;7845;53.698;10.078;2022-12-07T04:07:53;4.47;;;1.87;;
15486;SDS011;7845;53.698;10.078;2022-12-07T04:10:19;3.90;;;1.40;;
15486;SDS011;7845;53.698;10.078;2022-12-07T04:12:44;4.70;;;1.53;;
15486;SDS011;7845;53.698;10.078;2022-12-07T04:15:11;5.20;;;1.40;;
15486;SDS011;7845;53.698;10.078;2022-12-07T04:17:37;3.97;;;1.30;;
15486;SDS011;7845;53.698;10.078;2022-12-07T04:20:03;4.73;;;1.90;;
15486;SDS011;7845;53.698;10.078;2022-12-07T04:22:30;6.37;;;1.87;;
15486;SDS011;7845;53.698;10.078;2022-12-07T04:24:55;5.10;;;1.70;;
15486;SDS011;7845;53.698;10.078;2022-12-07T04:27:22;4.77;;;1.70;;
15486;SDS011;7845;53.698;10.078;2022-12-07T04:29:48;4.93;;;1.77;;
15486;SDS011;7845;53.698;10.078;2022-12-07T04:32:14;4.30;;;1.67;;
15486;SDS011;7845;53.698;10.078;2022-12-07T04:34:39;6.83;;;2.33;;
15486;SDS011;7845;53.698;10.078;2022-12-07T04:37:05;5.77;;;2.20;;
15486;SDS011;7845;53.698;10.078;2022-12-07T04:39:31;4.60;;;1.80;;
15486;SDS011;7845;53.698;10.078;2022-12-07T04:41:58;4.17;;;1.87;;
15486;SDS011;7845;53.698;10.078;2022-12-07T04:44:25;8.60;;;1.83;;
15486;SDS011;7845;53.698;10.078;2022-12-07T04:46:51;6.53;;;2.10;;
15486;SDS011;7845;53.698;10.078;2022-12-07T04:49:18;5.23;;;2.30;;
15486;SDS011;7845;53.698;10.078;2022-12-07T04:51:44;4.40;;;2.03;;
15486;SDS011;7845;53.698;10.078;2022-12-07T04:54:10;3.77;;;1.50;;
15486;SDS011;7845;53.698;10.078;2022-12-07T04:56:36;5.17;;;2.00;;
15486;SDS011;7845;53.698;10.078;2022-12-07T04:59:02;4.93;;;2.07;;
15486;SDS011;7845;53.698;10.078;2022-12-07T05:01:28;7.07;;;2.27;;
15486;SDS011;7845;53.698;10.078;2022-12-07T05:03:55;4.30;;;1.90;;
15486;SDS011;7845;53.698;10.078;2022-12-07T05:06:20;4.90;;;1.80;;
15486;SDS011;7845;53.698;10.078;2022-12-07T05:08:46;6.00;;;2.20;;
15486;SDS011;7845;53.698;10.078;2022-12-07T05:11:13;6.30;;;2.20;;
15486;SDS011;7845;53.698;10.078;2022-12-07T05:13:58;4.40;;;1.47;;
15486;SDS011;7845;53.698;10.078;2022-12-07T05:16:23;4.97;;;2.13;;
15486;SDS011;7845;53.698;10.078;2022-12-07T05:18:49;6.93;;;1.73;;
15486;SDS011;7845;53.698;10.078;2022-12-07T05:21:14;4.73;;;2.03;;
15486;SDS011;7845;53.698;10.078;2022-12-07T05:23:40;5.30;;;2.20;;
15486;SDS011;7845;53.698;10.078;2022-12-07T05:26:05;5.23;;;2.20;;
15486;SDS011;7845;53.698;10.078;2022-12-07T05:28:30;4.60;;;2.07;;
15486;SDS011;7845;53.698;10.078;2022-12-07T05:30:56;6.23;;;1.80;;
15486;SDS011;7845;53.698;10.078;2022-12-07T05:33:21;4.30;;;1.90;;
15486;SDS011;7845;53.698;10.078;2022-12-07T05:35:47;4.50;;;1.97;;
15486;SDS011;7845;53.698;10.078;2022-12-07T05:38:12;5.50;;;2.80;;
15486;SDS011;7845;53.698;10.078;2022-12-07T05:40:37;5.00;;;1.87;;
15486;SDS011;7845;53.698;10.078;2022-12-07T05:43:03;4.83;;;2.07;;
15486;SDS011;7845;53.698;10.078;2022-12-07T05:45:28;6.30;;;2.53;;
15486;SDS011;7845;53.698;10.078;2022-12-07T05:47:53;5.00;;;2.10;;
15486;SDS011;7845;53.698;10.078;2022-12-07T05:50:19;4.50;;;2.10;;
15486;SDS011;7845;53.698;10.078;2022-12-07T05:52:44;6.27;;;2.60;;
15486;SDS011;7845;53.698;10.078;2022-12-07T05:55:10;5.20;;;2.30;;
15486;SDS011;7845;53.698;10.078;2022-12-07T05:57:35;5.37;;;1.83;;
15486;SDS011;7845;53.698;10.078;2022-12-07T06:00:01;5.50;;;2.37;;
15486;SDS011;7845;53.698;10.078;2022-12-07T06:02:26;4.60;;;1.97;;
15486;SDS011;7845;53.698;10.078;2022-12-07T06:04:51;5.70;;;2.67;;
15486;SDS011;7845;53.698;10.078;2022-12-07T06:07:17;5.10;;;2.53;;
15486;SDS011;7845;53.698;10.078;2022-12-07T06:09:42;4.80;;;2.17;;
15486;SDS011;7845;53.698;10.078;2022-12-07T06:12:09;5.10;;;2.63;;
15486;SDS011;7845;53.698;10.078;2022-12-07T06:14:55;4.23;;;1.70;;
15486;SDS011;7845;53.698;10.078;2022-12-07T06:17:21;4.73;;;2.40;;
15486;SDS011;7845;53.698;10.078;2022-12-07T06:19:47;4.93;;;2.10;;
15486;SDS011;7845;53.698;10.078;2022-12-07T06:22:12;5.40;;;2.57;;
15486;SDS011;7845;53.698;10.078;2022-12-07T06:24:38;5.50;;;2.50;;
15486;SDS011;7845;53.698;10.078;2022-12-07T06:27:04;5.10;;;2.27;;
15486;SDS011;7845;53.698;10.078;2022-12-07T06:29:30;6.77;;;3.13;;
15486;SDS011;7845;53.698;10.078;2022-12-07T06:31:56;6.50;;;2.77;;
15486;SDS011;7845;53.698;10.078;2022-12-07T06:34:22;7.70;;;2.90;;
15486;SDS011;7845;53.698;10.078;2022-12-07T06:36:48;5.20;;;2.20;;
15486;SDS011;7845;53.698;10.078;2022-12-07T06:39:20;5.10;;;2.27;;
15486;SDS011;7845;53.698;10.078;2022-12-07T06:41:48;5.90;;;2.67;;
15486;SDS011;7845;53.698;10.078;2022-12-07T06:44:13;5.73;;;2.50;;
15486;SDS011;7845;53.698;10.078;2022-12-07T06:46:40;6.43;;;3.20;;
15486;SDS011;7845;53.698;10.078;2022-12-07T06:49:05;5.40;;;2.50;;
15486;SDS011;7845;53.698;10.078;2022-12-07T06:51:32;5.97;;;2.80;;
15486;SDS011;7845;53.698;10.078;2022-12-07T06:54:00;6.10;;;3.10;;
15486;SDS011;7845;53.698;10.078;2022-12-07T06:56:25;6.30;;;3.20;;
15486;SDS011;7845;53.698;10.078;2022-12-07T06:58:50;4.90;;;2.47;;
15486;SDS011;7845;53.698;10.078;2022-12-07T07:01:17;5.80;;;2.60;;
15486;SDS011;7845;53.698;10.078;2022-12-07T07:03:43;4.87;;;2.40;;
15486;SDS011;7845;53.698;10.078;2022-12-07T07:06:10;4.33;;;2.00;;
15486;SDS011;7845;53.698;10.078;2022-12-07T07:08:36;5.10;;;2.50;;
15486;SDS011;7845;53.698;10.078;2022-12-07T07:11:03;6.10;;;2.60;;
15486;SDS011;7845;53.698;10.078;2022-12-07T07:13:29;7.87;;;3.60;;
15486;SDS011;7845;53.698;10.078;2022-12-07T07:15:55;5.80;;;3.30;;
15486;SDS011;7845;53.698;10.078;2022-12-07T07:18:21;10.70;;;2.57;;
15486;SDS011;7845;53.698;10.078;2022-12-07T07:20:47;5.60;;;2.33;;
15486;SDS011;7845;53.698;10.078;2022-12-07T07:23:12;4.97;;;2.20;;
15486;SDS011;7845;53.698;10.078;2022-12-07T07:25:37;5.50;;;2.27;;
15486;SDS011;7845;53.698;10.078;2022-12-07T07:28:03;5.97;;;2.63;;
15486;SDS011;7845;53.698;10.078;2022-12-07T07:30:29;4.03;;;1.80;;
15486;SDS011;7845;53.698;10.078;2022-12-07T07:32:58;6.83;;;2.27;;
15486;SDS011;7845;53.698;10.078;2022-12-07T07:35:25;5.20;;;2.10;;
15486;SDS011;7845;53.698;10.078;2022-12-07T07:37:51;6.90;;;3.27;;
15486;SDS011;7845;53.698;10.078;2022-12-07T07:40:17;4.70;;;2.30;;
15486;SDS011;7845;53.698;10.078;2022-12-07T07:42:42;4.57;;;2.20;;
15486;SDS011;7845;53.698;10.078;2022-12-07T07:45:08;4.80;;;2.13;;
15486;SDS011;7845;53.698;10.078;2022-12-07T07:47:33;5.63;;;2.17;;
15486;SDS011;7845;53.698;10.078;2022-12-07T07:49:59;5.37;;;2.10;;
15486;SDS011;7845;53.698;10.078;2022-12-07T07:52:24;6.77;;;4.00;;
15486;SDS011;7845;53.698;10.078;2022-12-07T07:54:49;7.57;;;2.00;;
15486;SDS011;7845;53.698;10.078;2022-12-07T07:57:15;4.30;;;1.97;;
15486;SDS011;7845;53.698;10.078;2022-12-07T07:59:42;6.40;;;2.13;;
15486;SDS011;7845;53.698;10.078;2022-12-07T08:02:09;4.23;;;2.17;;
15486;SDS011;7845;53.698;10.078;2022-12-07T08:04:39;5.30;;;2.13;;
15486;SDS011;7845;53.698;10.078;2022-12-07T08:07:04;6.53;;;1.87;;
15486;SDS011;7845;53.698;10.078;2022-12-07T08:09:32;4.10;;;1.93;;
15486;SDS011;7845;53.698;10.078;2022-12-07T08:28:46;6.13;;;1.90;;
15486;SDS011;7845;53.698;10.078;2022-12-07T08:31:12;6.03;;;1.50;;
15486;SDS011;7845;53.698;10.078;2022-12-07T08:33:41;4.53;;;1.30;;
15486;SDS011;7845;53.698;10.078;2022-12-07T08:36:08;4.40;;;1.33;;
15486;SDS011;7845;53.698;10.078;2022-12-07T08:38:37;3.63;;;1.20;;
15486;SDS011;7845;53.698;10.078;2022-12-07T08:41:03;7.23;;;2.03;;
15486;SDS011;7845;53.698;10.078;2022-12-07T08:43:29;4.50;;;1.30;;
15486;SDS011;7845;53.698;10.078;2022-12-07T08:46:06;4.27;;;1.50;;
15486;SDS011;7845;53.698;10.078;2022-12-07T08:48:43;4.83;;;1.60;;
15486;SDS011;7845;53.698;10.078;2022-12-07T08:51:14;5.70;;;2.90;;
15486;SDS011;7845;53.698;10.078;2022-12-07T08:53:41;4.43;;;1.90;;
15486;SDS011;7845;53.698;10.078;2022-12-07T08:56:08;7.53;;;1.27;;
15486;SDS011;7845;53.698;10.078;2022-12-07T08:58:34;4.90;;;1.37;;
15486;SDS011;7845;53.698;10.078;2022-12-07T09:01:04;4.17;;;1.23;;
15486;SDS011;7845;53.698;10.078;2022-12-07T09:03:30;6.43;;;1.43;;
15486;SDS011;7845;53.698;10.078;2022-12-07T09:05:55;4.50;;;1.30;;
15486;SDS011;7845;53.698;10.078;2022-12-07T09:08:23;3.50;;;0.73;;
15486;SDS011;7845;53.698;10.078;2022-12-07T09:10:58;4.83;;;1.23;;
15486;SDS011;7845;53.698;10.078;2022-12-07T09:13:23;3.20;;;1.00;;
15486;SDS011;7845;53.698;10.078;2022-12-07T09:15:49;9.13;;;1.40;;
15486;SDS011;7845;53.698;10.078;2022-12-07T09:18:14;5.40;;;1.30;;
15486;SDS011;7845;53.698;10.078;2022-12-07T09:20:40;4.50;;;1.10;;
15486;SDS011;7845;53.698;10.078;2022-12-07T09:23:06;4.73;;;1.20;;
15486;SDS011;7845;53.698;10.078;2022-12-07T09:25:32;6.63;;;2.20;;
15486;SDS011;7845;53.698;10.078;2022-12-07T09:27:58;5.00;;;1.20;;
15486;SDS011;7845;53.698;10.078;2022-12-07T09:30:24;4.50;;;1.33;;
15486;SDS011;7845;53.698;10.078;2022-12-07T09:32:52;3.27;;;0.70;;
15486;SDS011;7845;53.698;10.078;2022-12-07T09:35:19;4.67;;;1.17;;
15486;SDS011;7845;53.698;10.078;2022-12-07T09:37:44;4.93;;;1.20;;
15486;SDS011;7845;53.698;10.078;2022-12-07T09:40:10;4.10;;;1.77;;
15486;SDS011;7845;53.698;10.078;2022-12-07T09:42:39;4.30;;;0.80;;
15486;SDS011;7845;53.698;10.078;2022-12-07T09:45:11;3.33;;;1.07;;
15486;SDS011;7845;53.698;10.078;2022-12-07T09:47:40;5.17;;;1.20;;
15486;SDS011;7845;53.698;10.078;2022-12-07T09:50:07;5.77;;;2.90;;
15486;SDS011;7845;53.698;10.078;2022-12-07T09:52:45;3.60;;;1.33;;
15486;SDS011;7845;53.698;10.078;2022-12-07T09:55:14;5.37;;;1.30;;
15486;SDS011;7845;53.698;10.078;2022-12-07T09:57:41;5.10;;;1.10;;
15486;SDS011;7845;53.698;10.078;2022-12-07T10:00:12;5.73;;;1.50;;
15486;SDS011;7845;53.698;10.078;2022-12-07T10:02:42;4.43;;;1.30;;
15486;SDS011;7845;53.698;10.078;2022-12-07T10:05:16;7.87;;;1.27;;
15486;SDS011;7845;53.698;10.078;2022-12-07T10:07:46;6.27;;;1.10;;
15486;SDS011;7845;53.698;10.078;2022-12-07T10:10:16;9.07;;;1.17;;
15486;SDS011;7845;53.698;10.078;2022-12-07T10:12:56;3.77;;;1.27;;
15486;SDS011;7845;53.698;10.078;2022-12-07T10:15:37;5.30;;;1.50;;
15486;SDS011;7845;53.698;10.078;2022-12-07T10:18:15;6.00;;;1.10;;
15486;SDS011;7845;53.698;10.078;2022-12-07T10:20:44;3.60;;;1.00;;
15486;SDS011;7845;53.698;10.078;2022-12-07T10:23:16;4.13;;;0.93;;
15486;SDS011;7845;53.698;10.078;2022-12-07T10:25:43;4.67;;;0.97;;
15486;SDS011;7845;53.698;10.078;2022-12-07T10:28:17;5.20;;;1.07;;
15486;SDS011;7845;53.698;10.078;2022-12-07T10:33:55;4.70;;;1.27;;
15486;SDS011;7845;53.698;10.078;2022-12-07T10:39:10;4.70;;;1.60;;
15486;SDS011;7845;53.698;10.078;2022-12-07T10:41:59;5.73;;;1.10;;
15486;SDS011;7845;53.698;10.078;2022-12-07T10:44:27;3.57;;;0.87;;
15486;SDS011;7845;53.698;10.078;2022-12-07T10:47:00;3.40;;;1.10;;
15486;SDS011;7845;53.698;10.078;2022-12-07T10:49:54;3.63;;;0.80;;
15486;SDS011;7845;53.698;10.078;2022-12-07T10:52:28;5.70;;;0.90;;
15486;SDS011;7845;53.698;10.078;2022-12-07T10:55:22;7.20;;;1.10;;
15486;SDS011;7845;53.698;10.078;2022-12-07T11:03:23;5.47;;;1.17;;
15486;SDS011;7845;53.698;10.078;2022-12-07T11:09:00;5.00;;;0.97;;
15486;SDS011;7845;53.698;10.078;2022-12-07T11:11:46;6.10;;;1.47;;
15486;SDS011;7845;53.698;10.078;2022-12-07T11:17:22;5.70;;;0.90;;
15486;SDS011;7845;53.698;10.078;2022-12-07T11:20:11;5.00;;;1.27;;
15486;SDS011;7845;53.698;10.078;2022-12-07T11:25:44;3.67;;;0.60;;
15486;SDS011;7845;53.698;10.078;2022-12-07T11:31:29;7.73;;;1.00;;
15486;SDS011;7845;53.698;10.078;2022-12-07T11:34:06;4.73;;;1.23;;
15486;SDS011;7845;53.698;10.078;2022-12-07T11:36:44;3.43;;;0.90;;
15486;SDS011;7845;53.698;10.078;2022-12-07T11:39:23;5.03;;;1.00;;
15486;SDS011;7845;53.698;10.078;2022-12-07T11:41:56;3.83;;;0.93;;
15486;SDS011;7845;53.698;10.078;2022-12-07T11:44:44;5.60;;;0.90;;
15486;SDS011;7845;53.698;10.078;2022-12-07T11:47:13;4.83;;;0.90;;
15486;SDS011;7845;53.698;10.078;2022-12-07T11:52:45;4.27;;;0.80;;
15486;SDS011;7845;53.698;10.078;2022-12-07T11:55:30;4.53;;;0.80;;
15486;SDS011;7845;53.698;10.078;2022-12-07T11:58:12;4.27;;;1.30;;
15486;SDS011;7845;53.698;10.078;2022-12-07T12:00:46;4.90;;;1.10;;
15486;SDS011;7845;53.698;10.078;2022-12-07T12:03:22;5.80;;;1.10;;
15486;SDS011;7845;53.698;10.078;2022-12-07T12:05:57;6.00;;;1.53;;
15486;SDS011;7845;53.698;10.078;2022-12-07T12:08:27;6.23;;;1.00;;
15486;SDS011;7845;53.698;10.078;2022-12-07T12:11:00;8.80;;;1.10;;
15486;SDS011;7845;53.698;10.078;2022-12-07T12:13:47;6.57;;;1.20;;
15486;SDS011;7845;53.698;10.078;2022-12-07T12:16:53;8.10;;;1.20;;
15486;SDS011;7845;53.698;10.078;2022-12-07T12:19:30;5.70;;;1.20;;
15486;SDS011;7845;53.698;10.078;2022-12-07T12:22:20;4.70;;;0.73;;
15486;SDS011;7845;53.698;10.078;2022-12-07T12:25:30;5.53;;;0.73;;
15486;SDS011;7845;53.698;10.078;2022-12-07T12:28:04;5.40;;;1.00;;
15486;SDS011;7845;53.698;10.078;2022-12-07T12:33:14;5.50;;;1.10;;
15486;SDS011;7845;53.698;10.078;2022-12-07T12:35:46;4.00;;;1.13;;
15486;SDS011;7845;53.698;10.078;2022-12-07T12:46:57;4.37;;;0.80;;
15486;SDS011;7845;53.698;10.078;2022-12-07T12:49:34;5.43;;;1.20;;
15486;SDS011;7845;53.698;10.078;2022-12-07T12:54:59;5.60;;;0.70;;
15486;SDS011;7845;53.698;10.078;2022-12-07T12:57:37;4.83;;;0.73;;
15486;SDS011;7845;53.698;10.078;2022-12-07T13:02:50;4.43;;;0.87;;
15486;SDS011;7845;53.698;10.078;2022-12-07T13:05:21;3.97;;;0.90;;
15486;SDS011;7845;53.698;10.078;2022-12-07T13:15:36;3.47;;;0.57;;
15486;SDS011;7845;53.698;10.078;2022-12-07T13:23:37;3.97;;;0.60;;
15486;SDS011;7845;53.698;10.078;2022-12-07T13:26:17;4.87;;;0.80;;
15486;SDS011;7845;53.698;10.078;2022-12-07T13:29:15;3.87;;;0.63;;
15486;SDS011;7845;53.698;10.078;2022-12-07T13:31:52;3.50;;;0.50;;
15486;SDS011;7845;53.698;10.078;2022-12-07T13:34:36;6.40;;;0.80;;
15486;SDS011;7845;53.698;10.078;2022-12-07T13:37:14;4.10;;;0.80;;
15486;SDS011;7845;53.698;10.078;2022-12-07T13:39:49;3.63;;;0.70;;
15486;SDS011;7845;53.698;10.078;2022-12-07T13:42:22;3.60;;;0.70;;
15486;SDS011;7845;53.698;10.078;2022-12-07T13:44:54;6.17;;;0.73;;
15486;SDS011;7845;53.698;10.078;2022-12-07T13:50:24;4.70;;;0.80;;
15486;SDS011;7845;53.698;10.078;2022-12-07T13:52:50;5.00;;;0.90;;
15486;SDS011;7845;53.698;10.078;2022-12-07T13:55:22;6.30;;;0.80;;
15486;SDS011;7845;53.698;10.078;2022-12-07T13:57:53;3.20;;;0.60;;
15486;SDS011;7845;53.698;10.078;2022-12-07T14:00:20;4.13;;;0.50;;
15486;SDS011;7845;53.698;10.078;2022-12-07T14:02:57;2.70;;;0.33;;
15486;SDS011;7845;53.698;10.078;2022-12-07T14:05:26;4.93;;;0.90;;
15486;SDS011;7845;53.698;10.078;2022-12-07T14:08:00;4.20;;;0.70;;
15486;SDS011;7845;53.698;10.078;2022-12-07T14:10:30;4.67;;;0.77;;
15486;SDS011;7845;53.698;10.078;2022-12-07T14:13:27;3.93;;;0.53;;
15486;SDS011;7845;53.698;10.078;2022-12-07T14:16:03;3.73;;;0.50;;
15486;SDS011;7845;53.698;10.078;2022-12-07T14:18:43;4.83;;;0.63;;
15486;SDS011;7845;53.698;10.078;2022-12-07T14:23:34;2.90;;;0.50;;
15486;SDS011;7845;53.698;10.078;2022-12-07T14:26:21;3.17;;;0.50;;
15486;SDS011;7845;53.698;10.078;2022-12-07T14:28:46;3.87;;;0.43;;
15486;SDS011;7845;53.698;10.078;2022-12-07T14:31:13;3.87;;;0.50;;
15486;SDS011;7845;53.698;10.078;2022-12-07T14:33:41;4.27;;;0.70;;
15486;SDS011;7845;53.698;10.078;2022-12-07T14:36:13;5.83;;;0.50;;
15486;SDS011;7845;53.698;10.078;2022-12-07T14:38:39;5.53;;;0.53;;
15486;SDS011;7845;53.698;10.078;2022-12-07T14:41:06;3.00;;;0.40;;
15486;SDS011;7845;53.698;10.078;2022-12-07T14:43:57;3.07;;;0.50;;
15486;SDS011;7845;53.698;10.078;2022-12-07T14:46:23;3.93;;;0.60;;
15486;SDS011;7845;53.698;10.078;2022-12-07T14:48:50;4.20;;;0.57;;
15486;SDS011;7845;53.698;10.078;2022-12-07T14:51:16;4.47;;;0.90;;
15486;SDS011;7845;53.698;10.078;2022-12-07T14:53:45;3.73;;;0.83;;
15486;SDS011;7845;53.698;10.078;2022-12-07T14:56:15;3.87;;;0.67;;
15486;SDS011;7845;53.698;10.078;2022-12-07T14:58:40;4.43;;;0.60;;
15486;SDS011;7845;53.698;10.078;2022-12-07T15:01:05;3.77;;;0.60;;
15486;SDS011;7845;53.698;10.078;2022-12-07T15:03:31;4.03;;;0.60;;
15486;SDS011;7845;53.698;10.078;2022-12-07T15:05:57;3.77;;;0.60;;
15486;SDS011;7845;53.698;10.078;2022-12-07T15:08:22;3.73;;;0.70;;
15486;SDS011;7845;53.698;10.078;2022-12-07T15:10:48;4.33;;;0.50;;
15486;SDS011;7845;53.698;10.078;2022-12-07T15:13:13;3.90;;;0.57;;
15486;SDS011;7845;53.698;10.078;2022-12-07T15:15:57;4.90;;;0.80;;
15486;SDS011;7845;53.698;10.078;2022-12-07T15:18:23;4.20;;;0.87;;
15486;SDS011;7845;53.698;10.078;2022-12-07T15:20:50;5.83;;;1.03;;
15486;SDS011;7845;53.698;10.078;2022-12-07T15:23:16;4.03;;;0.80;;
15486;SDS011;7845;53.698;10.078;2022-12-07T15:25:43;4.20;;;0.90;;
15486;SDS011;7845;53.698;10.078;2022-12-07T15:28:12;3.50;;;0.70;;
15486;SDS011;7845;53.698;10.078;2022-12-07T15:30:38;2.80;;;0.40;;
15486;SDS011;7845;53.698;10.078;2022-12-07T15:33:04;3.90;;;0.80;;
15486;SDS011;7845;53.698;10.078;2022-12-07T15:35:31;3.53;;;0.60;;
15486;SDS011;7845;53.698;10.078;2022-12-07T15:37:59;3.97;;;0.93;;
15486;SDS011;7845;53.698;10.078;2022-12-07T15:40:24;4.47;;;0.87;;
15486;SDS011;7845;53.698;10.078;2022-12-07T15:42:50;4.60;;;0.87;;
15486;SDS011;7845;53.698;10.078;2022-12-07T15:45:16;5.57;;;0.70;;
15486;SDS011;7845;53.698;10.078;2022-12-07T15:47:42;3.10;;;0.60;;
15486;SDS011;7845;53.698;10.078;2022-12-07T15:50:11;3.30;;;0.67;;
15486;SDS011;7845;53.698;10.078;2022-12-07T15:52:38;4.03;;;0.90;;
15486;SDS011;7845;53.698;10.078;2022-12-07T15:55:04;3.20;;;0.60;;
15486;SDS011;7845;53.698;10.078;2022-12-07T15:57:31;4.30;;;0.90;;
15486;SDS011;7845;53.698;10.078;2022-12-07T15:59:58;3.13;;;0.67;;
15486;SDS011;7845;53.698;10.078;2022-12-07T16:02:23;5.60;;;0.80;;
15486;SDS011;7845;53.698;10.078;2022-12-07T16:04:50;4.83;;;0.67;;
15486;SDS011;7845;53.698;10.078;2022-12-07T16:07:16;5.43;;;0.70;;
15486;SDS011;7845;53.698;10.078;2022-12-07T16:09:43;3.03;;;0.63;;
15486;SDS011;7845;53.698;10.078;2022-12-07T16:12:10;4.90;;;0.80;;
15486;SDS011;7845;53.698;10.078;2022-12-07T16:14:37;4.17;;;0.70;;
15486;SDS011;7845;53.698;10.078;2022-12-07T16:17:03;3.70;;;0.67;;
15486;SDS011;7845;53.698;10.078;2022-12-07T16:19:29;6.77;;;1.43;;
15486;SDS011;7845;53.698;10.078;2022-12-07T16:21:56;3.07;;;0.60;;
15486;SDS011;7845;53.698;10.078;2022-12-07T16:24:21;3.30;;;0.63;;
15486;SDS011;7845;53.698;10.078;2022-12-07T16:26:47;3.17;;;0.90;;
15486;SDS011;7845;53.698;10.078;2022-12-07T16:29:13;3.63;;;0.70;;
15486;SDS011;7845;53.698;10.078;2022-12-07T16:31:39;3.53;;;0.87;;
15486;SDS011;7845;53.698;10.078;2022-12-07T16:34:05;4.70;;;1.20;;
15486;SDS011;7845;53.698;10.078;2022-12-07T16:36:31;4.30;;;1.03;;
15486;SDS011;7845;53.698;10.078;2022-12-07T16:39:00;3.60;;;1.03;;
15486;SDS011;7845;53.698;10.078;2022-12-07T16:41:26;5.30;;;1.07;;
15486;SDS011;7845;53.698;10.078;2022-12-07T16:43:52;5.00;;;1.03;;
15486;SDS011;7845;53.698;10.078;2022-12-07T16:46:17;4.60;;;1.37;;
15486;SDS011;7845;53.698;10.078;2022-12-07T16:48:43;4.70;;;1.60;;
15486;SDS011;7845;53.698;10.078;2022-12-07T16:51:12;4.40;;;1.43;;
15486;SDS011;7845;53.698;10.078;2022-12-07T16:53:40;4.60;;;1.87;;
15486;SDS011;7845;53.698;10.078;2022-12-07T16:56:14;3.60;;;1.23;;
15486;SDS011;7845;53.698;10.078;2022-12-07T16:58:43;4.20;;;1.60;;
15486;SDS011;7845;53.698;10.078;2022-12-07T17:01:13;4.00;;;1.50;;
15486;SDS011;7845;53.698;10.078;2022-12-07T17:03:43;5.20;;;1.77;;
15486;SDS011;7845;53.698;10.078;2022-12-07T17:06:30;7.90;;;2.30;;
15486;SDS011;7845;53.698;10.078;2022-12-07T17:08:56;5.23;;;1.90;;
15486;SDS011;7845;53.698;10.078;2022-12-07T17:11:26;6.23;;;1.90;;
15486;SDS011;7845;53.698;10.078;2022-12-07T17:13:53;6.50;;;1.90;;
15486;SDS011;7845;53.698;10.078;2022-12-07T17:16:38;5.00;;;1.53;;
15486;SDS011;7845;53.698;10.078;2022-12-07T17:19:05;6.20;;;2.30;;
15486;SDS011;7845;53.698;10.078;2022-12-07T17:21:36;5.10;;;1.80;;
15486;SDS011;7845;53.698;10.078;2022-12-07T17:24:03;4.37;;;1.53;;
15486;SDS011;7845;53.698;10.078;2022-12-07T17:26:30;5.70;;;2.10;;
15486;SDS011;7845;53.698;10.078;2022-12-07T17:28:56;3.97;;;1.50;;
15486;SDS011;7845;53.698;10.078;2022-12-07T17:31:22;4.83;;;1.90;;
15486;SDS011;7845;53.698;10.078;2022-12-07T17:33:49;7.70;;;1.77;;
15486;SDS011;7845;53.698;10.078;2022-12-07T17:36:16;4.80;;;1.57;;
15486;SDS011;7845;53.698;10.078;2022-12-07T17:38:50;5.53;;;1.73;;